createdAt,value
2023-03-10T00:01:29.532Z,40.60
2023-03-10T00:03:31.315Z,40.70
2023-03-10T00:05:33.205Z,40.70
2023-03-10T00:07:34.997Z,40.60
2023-03-10T00:09:37.047Z,40.60
2023-03-10T00:11:38.756Z,40.60
2023-03-10T00:13:40.578Z,40.60
2023-03-10T00:15:42.413Z,40.60
2023-03-10T00:17:44.191Z,40.70
2023-03-10T00:19:45.927Z,40.60
2023-03-10T00:21:47.674Z,40.60
2023-03-10T00:23:49.462Z,40.60
2023-03-10T00:25:55.563Z,40.60
2023-03-10T00:27:57.310Z,40.60
2023-03-10T00:29:59.179Z,40.60
2023-03-10T00:32:00.879Z,40.60
2023-03-10T00:34:03.352Z,40.70
2023-03-10T00:36:07.860Z,40.60
2023-03-10T00:38:09.670Z,40.70
2023-03-10T00:40:11.841Z,40.60
2023-03-10T00:42:13.615Z,40.60
2023-03-10T00:44:15.793Z,40.60
2023-03-10T00:46:18.289Z,40.60
2023-03-10T00:48:20.182Z,40.60
2023-03-10T00:50:21.958Z,40.60
2023-03-10T00:52:23.820Z,40.60
2023-03-10T00:54:25.606Z,40.60
2023-03-10T00:56:27.642Z,40.50
2023-03-10T00:58:29.913Z,40.50
2023-03-10T01:00:31.730Z,40.60
2023-03-10T01:02:33.534Z,40.60
2023-03-10T01:04:35.379Z,40.60
2023-03-10T01:06:37.573Z,40.70
2023-03-10T01:08:39.357Z,40.70
2023-03-10T01:10:41.074Z,40.60
2023-03-10T01:12:42.865Z,40.50
2023-03-10T01:14:44.702Z,40.60
2023-03-10T01:16:46.430Z,40.50
2023-03-10T01:18:49.279Z,40.50
2023-03-10T01:20:51.524Z,40.50
2023-03-10T01:22:53.339Z,40.60
2023-03-10T01:24:55.109Z,40.50
2023-03-10T01:26:56.856Z,40.50
2023-03-10T01:28:58.935Z,40.50
2023-03-10T01:31:00.701Z,40.60
2023-03-10T01:33:02.455Z,40.60
2023-03-10T01:35:05.334Z,40.50
2023-03-10T01:37:07.141Z,40.60
2023-03-10T01:39:09.985Z,40.50
2023-03-10T01:41:11.899Z,40.50
2023-03-10T01:43:19.384Z,40.40
2023-03-10T01:45:21.145Z,40.40
2023-03-10T01:47:23.023Z,40.40
2023-03-10T01:49:24.770Z,40.50
2023-03-10T01:51:27.374Z,40.50
2023-03-10T01:53:29.432Z,40.50
2023-03-10T01:55:33.482Z,40.40
2023-03-10T01:57:40.482Z,40.50
2023-03-10T01:59:42.602Z,40.40
2023-03-10T02:01:45.518Z,40.50
2023-03-10T02:03:53.445Z,40.50
2023-03-10T02:05:57.206Z,40.50
2023-03-10T02:07:59.631Z,40.50
2023-03-10T02:10:02.220Z,40.50
2023-03-10T02:12:04.930Z,40.60
2023-03-10T02:14:07.969Z,40.50
2023-03-10T02:16:11.149Z,40.50
2023-03-10T02:18:14.452Z,40.50
2023-03-10T02:20:16.167Z,40.40
2023-03-10T02:22:18.041Z,40.50
2023-03-10T02:24:53.491Z,40.50
2023-03-10T02:27:01.766Z,40.50
2023-03-10T02:29:05.332Z,40.30
2023-03-10T02:31:07.842Z,40.30
2023-03-10T02:33:12.446Z,40.30
2023-03-10T02:35:14.202Z,40.30
2023-03-10T02:37:29.104Z,40.40
2023-03-10T02:39:31.131Z,40.40
2023-03-10T02:41:35.801Z,40.30
2023-03-10T02:43:39.068Z,40.30
2023-03-10T02:45:55.119Z,40.30
2023-03-10T02:47:58.986Z,40.50
2023-03-10T02:50:00.884Z,40.30
2023-03-10T02:52:07.486Z,40.30
2023-03-10T02:54:09.856Z,40.40
2023-03-10T02:56:12.674Z,40.20
2023-03-10T02:58:16.756Z,40.40
2023-03-10T03:00:18.636Z,40.30
2023-03-10T03:02:20.472Z,40.30
2023-03-10T03:04:22.282Z,40.30
2023-03-10T03:06:24.710Z,40.30
2023-03-10T03:08:26.546Z,40.20
2023-03-10T03:10:28.492Z,40.30
2023-03-10T03:12:30.343Z,40.50
2023-03-10T03:14:32.197Z,40.30
2023-03-10T03:16:34.011Z,40.30
2023-03-10T03:18:39.498Z,40.30
2023-03-10T03:20:42.741Z,40.30
2023-03-10T03:22:47.254Z,40.10
2023-03-10T03:24:49.096Z,40.20
2023-03-10T03:26:51.054Z,40.20
2023-03-10T03:28:57.114Z,40.30
2023-03-10T03:31:02.843Z,40.30
2023-03-10T03:33:06.834Z,40.20
2023-03-10T03:35:11.075Z,40.20
2023-03-10T03:37:12.953Z,40.20
2023-03-10T03:39:14.926Z,40.20
2023-03-10T03:41:16.865Z,40.30
2023-03-10T03:43:18.710Z,40.10
2023-03-10T03:45:23.716Z,40.10
2023-03-10T03:47:27.970Z,40.10
2023-03-10T03:49:29.980Z,40.10
2023-03-10T03:51:31.998Z,40.10
2023-03-10T03:53:34.464Z,40.10
2023-03-10T03:55:37.371Z,40.20
2023-03-10T03:57:39.892Z,40.10
2023-03-10T03:59:41.777Z,40.10
2023-03-10T04:01:44.212Z,40.10
2023-03-10T04:03:46.375Z,40.10
2023-03-10T04:05:51.014Z,40.10
2023-03-10T04:07:54.529Z,40.20
2023-03-10T04:09:57.054Z,40.70
2023-03-10T04:11:58.968Z,40.10
2023-03-10T04:14:01.268Z,40.20
2023-03-10T04:16:03.561Z,40.20
2023-03-10T04:18:09.091Z,40.20
2023-03-10T04:20:11.196Z,40.20
2023-03-10T04:22:16.245Z,40.20
2023-03-10T04:24:19.877Z,40.20
2023-03-10T04:26:21.705Z,40.10
2023-03-10T04:28:24.333Z,40.10
2023-03-10T04:30:26.234Z,40.00
2023-03-10T04:32:28.641Z,40.00
2023-03-10T04:34:30.668Z,40.00
2023-03-10T04:36:32.609Z,40.10
2023-03-10T04:38:37.427Z,40.10
2023-03-10T04:40:39.972Z,40.10
2023-03-10T04:42:41.899Z,40.10
2023-03-10T04:44:43.922Z,40.10
2023-03-10T04:46:45.812Z,40.10
2023-03-10T04:48:47.790Z,40.00
2023-03-10T04:51:00.141Z,40.10
2023-03-10T04:53:04.430Z,40.00
2023-03-10T04:55:06.831Z,40.10
2023-03-10T04:57:08.660Z,40.10
2023-03-10T04:59:10.583Z,40.10
2023-03-10T05:01:17.712Z,40.10
2023-03-10T05:03:26.472Z,40.10
2023-03-10T05:05:28.310Z,40.10
2023-03-10T05:07:30.316Z,40.20
2023-03-10T05:09:34.892Z,40.20
2023-03-10T05:11:36.664Z,40.20
2023-03-10T05:13:38.466Z,40.30
2023-03-10T05:15:41.833Z,40.40
2023-03-10T05:17:44.336Z,40.30
2023-03-10T05:19:46.132Z,40.30
2023-03-10T05:21:47.917Z,40.30
2023-03-10T05:23:50.565Z,40.30
2023-03-10T05:25:53.603Z,40.30
2023-03-10T05:27:57.089Z,40.30
2023-03-10T05:29:59.106Z,40.20
2023-03-10T05:32:01.325Z,40.20
2023-03-10T05:34:08.555Z,40.20
2023-03-10T05:36:12.521Z,40.30
2023-03-10T05:38:15.440Z,40.30
2023-03-10T05:40:17.273Z,40.20
2023-03-10T05:42:19.714Z,40.20
2023-03-10T05:44:21.846Z,40.30
2023-03-10T05:46:24.679Z,40.30
2023-03-10T05:48:30.453Z,40.30
2023-03-10T05:50:33.825Z,40.30
2023-03-10T05:52:40.024Z,40.30
2023-03-10T05:54:42.614Z,40.40
2023-03-10T05:56:45.238Z,40.40
2023-03-10T05:58:47.430Z,40.50
2023-03-10T06:00:52.145Z,40.30
2023-03-10T06:02:53.965Z,40.30
2023-03-10T06:04:55.724Z,40.30
2023-03-10T06:06:57.696Z,40.30
2023-03-10T06:08:59.524Z,40.50
2023-03-10T06:11:01.270Z,40.40
2023-03-10T06:13:03.087Z,40.40
2023-03-10T06:15:05.180Z,40.40
2023-03-10T06:17:06.933Z,40.40
2023-03-10T06:19:10.346Z,40.40
2023-03-10T06:21:13.509Z,40.30
2023-03-10T06:23:16.363Z,40.40
2023-03-10T06:25:18.214Z,40.40
2023-03-10T06:27:19.911Z,40.40
2023-03-10T06:29:21.698Z,40.30
2023-03-10T06:31:23.949Z,40.40
2023-03-10T06:33:26.320Z,40.50
2023-03-10T06:35:29.039Z,40.40
2023-03-10T06:37:30.815Z,40.60
2023-03-10T06:39:32.595Z,40.50
2023-03-10T06:41:35.465Z,40.60
2023-03-10T06:43:37.567Z,40.50
2023-03-10T06:45:42.977Z,40.60
2023-03-10T06:47:44.956Z,40.70
2023-03-10T06:49:49.434Z,40.50
2023-03-10T06:51:51.230Z,40.50
2023-03-10T06:53:52.940Z,40.50
2023-03-10T06:56:02.091Z,40.40
2023-03-10T06:58:03.974Z,40.60
2023-03-10T07:00:06.146Z,40.60
2023-03-10T07:02:10.080Z,40.60
2023-03-10T07:04:12.587Z,40.60
2023-03-10T07:06:14.393Z,40.50
2023-03-10T07:08:16.103Z,40.50
2023-03-10T07:10:18.092Z,40.60
2023-03-10T07:12:19.856Z,41.20
2023-03-10T07:14:21.695Z,40.70
2023-03-10T07:16:24.051Z,40.60
2023-03-10T07:18:26.006Z,40.50
2023-03-10T07:20:27.760Z,40.50
2023-03-10T07:22:29.526Z,40.60
2023-03-10T07:24:31.346Z,40.60
2023-03-10T07:26:33.106Z,40.60
2023-03-10T07:28:35.847Z,40.60
2023-03-10T07:30:37.661Z,40.50
2023-03-10T07:32:39.453Z,40.60
2023-03-10T07:34:41.395Z,40.60
2023-03-10T07:36:43.142Z,40.50
2023-03-10T07:38:45.382Z,40.60
2023-03-10T07:40:47.159Z,40.60
2023-03-10T07:42:48.914Z,40.60
2023-03-10T07:44:51.509Z,40.50
2023-03-10T07:46:53.468Z,40.50
2023-03-10T07:48:55.929Z,40.50
2023-03-10T07:50:58.403Z,40.60
2023-03-10T07:53:00.163Z,40.60
2023-03-10T07:55:01.915Z,40.60
2023-03-10T07:57:03.700Z,40.50
2023-03-10T07:59:05.454Z,40.60
2023-03-10T08:01:08.024Z,40.40
2023-03-10T08:03:09.798Z,40.60
2023-03-10T08:05:11.774Z,40.50
2023-03-10T08:07:13.714Z,40.40
2023-03-10T08:09:15.651Z,40.40
2023-03-10T08:11:17.866Z,40.50
2023-03-10T08:13:19.703Z,40.50
2023-03-10T08:15:21.581Z,40.50
2023-03-10T08:17:23.673Z,40.50
2023-03-10T08:19:26.094Z,40.50
2023-03-10T08:21:27.907Z,40.50
2023-03-10T08:23:29.753Z,40.90
2023-03-10T08:25:31.538Z,40.70
2023-03-10T08:27:33.319Z,40.80
2023-03-10T08:29:35.377Z,40.50
2023-03-10T08:31:37.557Z,40.60
2023-03-10T08:33:39.917Z,40.80
2023-03-10T08:35:41.749Z,41.00
2023-03-10T08:37:44.072Z,41.30
2023-03-10T08:39:46.069Z,41.10
2023-03-10T08:41:47.869Z,41.10
2023-03-10T08:43:50.441Z,41.00
2023-03-10T08:45:52.156Z,41.70
2023-03-10T08:47:53.978Z,42.20
2023-03-10T08:49:55.715Z,41.70
2023-03-10T08:51:57.485Z,41.80
2023-03-10T08:53:59.867Z,41.70
2023-03-10T08:56:01.706Z,41.60
2023-03-10T08:58:03.530Z,41.60
2023-03-10T09:00:05.928Z,41.90
2023-03-10T09:02:07.827Z,42.20
2023-03-10T09:04:09.819Z,41.90
2023-03-10T09:06:11.853Z,41.80
2023-03-10T09:08:13.650Z,42.00
2023-03-10T09:10:15.709Z,42.00
2023-03-10T09:12:17.555Z,41.80
2023-03-10T09:14:19.319Z,41.70
2023-03-10T09:16:21.230Z,41.70
2023-03-10T09:18:23.055Z,41.80
2023-03-10T09:20:24.847Z,41.90
2023-03-10T09:22:26.678Z,42.00
2023-03-10T09:24:28.454Z,41.90
2023-03-10T09:26:30.293Z,41.80
2023-03-10T09:28:32.122Z,42.00
2023-03-10T09:30:35.137Z,41.80
2023-03-10T09:32:37.062Z,41.90
2023-03-10T09:34:38.863Z,42.10
2023-03-10T09:36:40.667Z,42.10
2023-03-10T09:41:10.577Z,41.80
2023-03-10T09:43:15.441Z,42.60
2023-03-10T09:45:29.183Z,42.40
2023-03-10T09:47:37.125Z,42.40
2023-03-10T09:49:41.313Z,42.40
2023-03-10T09:51:45.178Z,42.30
2023-03-10T09:53:52.783Z,42.20
2023-03-10T09:55:54.778Z,42.00
2023-03-10T09:57:57.250Z,41.90
2023-03-10T10:00:01.636Z,41.90
2023-03-10T10:02:09.839Z,42.10
2023-03-10T10:04:14.817Z,42.00
2023-03-10T10:06:19.168Z,42.00
2023-03-10T10:08:28.568Z,41.80
2023-03-10T10:10:32.362Z,42.20
2023-03-10T10:12:34.122Z,41.90
2023-03-10T10:14:38.374Z,41.90
2023-03-10T10:16:45.131Z,41.80
2023-03-10T10:18:59.360Z,41.90
2023-03-10T10:21:12.472Z,41.90
2023-03-10T10:23:17.390Z,42.30
2023-03-10T10:25:23.109Z,42.10
2023-03-10T10:27:25.632Z,42.10
2023-03-10T10:29:32.258Z,42.10
2023-03-10T10:31:36.132Z,42.30
2023-03-10T10:33:54.668Z,42.10
2023-03-10T10:36:01.021Z,41.90
2023-03-10T10:38:12.018Z,41.90
2023-03-10T10:40:24.626Z,41.80
2023-03-10T10:42:33.900Z,42.00
2023-03-10T10:44:40.645Z,41.90
2023-03-10T10:46:53.094Z,42.10
2023-03-10T10:49:23.980Z,42.10
2023-03-10T10:51:27.267Z,42.10
2023-03-10T10:53:29.889Z,42.40
2023-03-10T10:55:32.632Z,42.30
2023-03-10T10:57:37.470Z,42.50
2023-03-10T10:59:39.276Z,42.50
2023-03-10T11:01:47.161Z,42.00
2023-03-10T11:03:49.081Z,41.90
2023-03-10T11:05:51.015Z,41.70
2023-03-10T11:07:52.766Z,42.30
2023-03-10T11:09:56.751Z,42.40
2023-03-10T11:12:04.527Z,42.30
2023-03-10T11:14:25.126Z,42.20
2023-03-10T11:16:42.046Z,42.10
2023-03-10T11:18:51.591Z,41.90
2023-03-10T11:20:53.349Z,42.10
2023-03-10T11:22:55.119Z,42.00
2023-03-10T11:25:03.153Z,42.00
2023-03-10T11:27:21.665Z,42.10
2023-03-10T11:29:29.962Z,41.80
2023-03-10T11:31:53.526Z,41.80
2023-03-10T11:34:15.823Z,42.30
2023-03-10T11:36:29.798Z,42.30
2023-03-10T11:38:40.362Z,42.10
2023-03-10T11:40:47.784Z,42.10
2023-03-10T11:43:02.331Z,42.10
2023-03-10T11:45:13.238Z,42.10
2023-03-10T11:47:25.411Z,42.00
2023-03-10T11:49:30.325Z,42.00
2023-03-10T11:51:43.839Z,42.10
2023-03-10T11:53:48.198Z,42.20
2023-03-10T11:55:50.942Z,42.20
2023-03-10T11:57:56.416Z,42.30
2023-03-10T12:00:01.216Z,42.30
2023-03-10T12:02:20.192Z,42.20
2023-03-10T12:04:44.968Z,42.30
2023-03-10T12:06:46.929Z,42.30
2023-03-10T12:08:51.114Z,42.60
2023-03-10T12:10:54.132Z,42.30
2023-03-10T12:12:56.012Z,42.20
2023-03-10T12:14:59.775Z,42.50
2023-03-10T12:17:02.579Z,42.30
2023-03-10T12:19:05.338Z,42.50
2023-03-10T12:21:14.460Z,42.40
2023-03-10T12:23:36.598Z,42.40
2023-03-10T12:25:38.415Z,42.50
2023-03-10T12:27:58.879Z,42.60
2023-03-10T12:30:00.657Z,42.50
2023-03-10T12:32:02.549Z,42.60
2023-03-10T12:34:15.756Z,43.00
2023-03-10T12:36:20.367Z,42.60
2023-03-10T12:38:27.670Z,42.40
2023-03-10T12:40:48.601Z,42.40
2023-03-10T12:42:50.515Z,42.50
2023-03-10T12:44:55.292Z,42.50
2023-03-10T12:47:00.186Z,42.70
2023-03-10T12:49:14.477Z,42.70
2023-03-10T12:51:19.165Z,42.80
2023-03-10T12:53:25.149Z,42.90
2023-03-10T12:55:27.618Z,43.10
2023-03-10T12:57:32.848Z,43.30
2023-03-10T12:59:53.460Z,43.60
2023-03-10T13:01:57.033Z,42.60
2023-03-10T13:10:06.458Z,42.30
2023-03-10T13:12:24.123Z,42.50
2023-03-10T13:14:41.849Z,42.20
2023-03-10T13:16:53.587Z,42.30
2023-03-10T13:18:55.519Z,42.60
2023-03-10T13:20:58.494Z,42.20
2023-03-10T13:23:00.242Z,42.20
2023-03-10T13:25:03.837Z,42.20
2023-03-10T13:27:13.165Z,41.60
2023-03-10T13:29:18.844Z,41.80
2023-03-10T13:31:25.052Z,42.00
2023-03-10T13:33:26.860Z,41.90
2023-03-10T13:35:36.370Z,41.80
2023-03-10T13:37:38.238Z,41.90
2023-03-10T13:39:40.055Z,42.00
2023-03-10T13:41:43.932Z,42.00
2023-03-10T13:43:46.757Z,42.00
2023-03-10T13:45:54.128Z,42.00
2023-03-10T13:47:55.968Z,42.00
2023-03-10T13:49:59.096Z,42.20
2023-03-10T13:52:01.968Z,42.20
2023-03-10T13:54:13.109Z,42.00
2023-03-10T13:56:17.099Z,42.10
2023-03-10T13:58:18.870Z,42.40
2023-03-10T14:00:22.877Z,42.50
2023-03-10T14:02:32.845Z,42.50
2023-03-10T14:04:54.083Z,42.30
2023-03-10T14:07:31.181Z,42.50
2023-03-10T14:09:32.954Z,42.60
2023-03-10T14:11:42.208Z,42.60
2023-03-10T14:13:44.673Z,42.40
2023-03-10T14:15:53.469Z,42.60
2023-03-10T14:18:07.421Z,42.50
2023-03-10T14:20:10.384Z,42.50
2023-03-10T14:22:22.584Z,42.70
2023-03-10T14:24:24.362Z,42.60
2023-03-10T14:26:26.123Z,45.10
2023-03-10T14:28:29.478Z,45.60
2023-03-10T14:30:32.354Z,42.90
2023-03-10T14:32:34.185Z,42.60
2023-03-10T14:34:35.964Z,42.90
2023-03-10T14:36:37.766Z,42.90
2023-03-10T14:38:39.486Z,43.40
2023-03-10T14:40:44.301Z,42.70
2023-03-10T14:42:47.145Z,43.30
2023-03-10T14:44:49.245Z,42.90
2023-03-10T14:46:51.293Z,42.90
2023-03-10T14:48:53.390Z,42.70
2023-03-10T14:50:56.977Z,42.80
2023-03-10T14:52:58.969Z,43.20
2023-03-10T14:55:00.771Z,43.00
2023-03-10T14:57:03.430Z,42.90
2023-03-10T14:59:05.191Z,42.80
2023-03-10T15:01:07.105Z,42.90
2023-03-10T15:03:11.119Z,42.90
2023-03-10T15:05:20.190Z,42.80
2023-03-10T15:07:21.967Z,43.10
2023-03-10T15:09:23.739Z,43.30
2023-03-10T15:11:36.608Z,43.00
2023-03-10T15:13:39.284Z,43.40
2023-03-10T15:15:42.558Z,43.20
2023-03-10T15:17:44.830Z,43.10
2023-03-10T15:19:46.593Z,43.20
2023-03-10T15:21:48.462Z,43.10
2023-03-10T15:23:50.233Z,43.10
2023-03-10T15:27:54.294Z,42.90
2023-03-10T15:29:56.103Z,42.90
2023-03-10T15:31:57.887Z,43.00
2023-03-10T15:33:59.619Z,42.80
2023-03-10T15:36:01.470Z,42.70
2023-03-10T15:38:03.406Z,42.50
2023-03-10T15:40:05.575Z,42.60
2023-03-10T15:42:07.370Z,42.70
2023-03-10T15:44:09.139Z,42.60
2023-03-10T15:46:11.289Z,42.80
2023-03-10T15:48:13.122Z,42.90
2023-03-10T15:50:15.737Z,43.30
2023-03-10T15:52:17.540Z,43.20
2023-03-10T15:54:19.295Z,42.90
2023-03-10T15:56:21.110Z,43.40
2023-03-10T15:58:22.991Z,43.10
2023-03-10T16:00:25.703Z,43.10
2023-03-10T16:02:27.528Z,43.20
2023-03-10T16:04:30.671Z,44.00
2023-03-10T16:06:33.326Z,43.50
2023-03-10T16:08:35.667Z,43.40
2023-03-10T16:10:37.430Z,43.50
2023-03-10T16:12:39.241Z,43.30
2023-03-10T16:14:41.003Z,43.50
2023-03-10T16:16:42.807Z,43.40
2023-03-10T16:18:45.102Z,43.80
2023-03-10T16:20:54.891Z,43.80
2023-03-10T16:22:56.662Z,43.70
2023-03-10T16:24:58.419Z,43.70
2023-03-10T16:27:00.201Z,43.80
2023-03-10T16:29:01.975Z,44.10
2023-03-10T16:31:04.568Z,43.90
2023-03-10T16:33:06.304Z,44.10
2023-03-10T16:35:08.469Z,43.80
2023-03-10T16:37:10.258Z,43.70
2023-03-10T16:39:12.776Z,43.60
2023-03-10T16:41:14.624Z,44.10
2023-03-10T16:43:16.932Z,44.00
2023-03-10T16:45:18.818Z,43.90
2023-03-10T16:47:20.646Z,43.70
2023-03-10T16:49:22.423Z,43.20
2023-03-10T16:51:34.794Z,43.40
2023-03-10T16:53:36.567Z,43.40
2023-03-10T16:55:38.315Z,43.10
2023-03-10T16:57:40.066Z,43.20
2023-03-10T16:59:42.670Z,43.50
2023-03-10T17:01:44.553Z,42.70
2023-03-10T17:03:49.484Z,41.40
2023-03-10T17:05:51.316Z,40.50
2023-03-10T17:07:55.995Z,40.70
2023-03-10T17:09:58.119Z,40.30
2023-03-10T17:11:59.881Z,41.00
2023-03-10T17:14:03.462Z,41.00
2023-03-10T17:16:10.602Z,40.80
2023-03-10T17:18:12.402Z,40.60
2023-03-10T17:20:14.284Z,40.70
2023-03-10T17:22:16.070Z,40.70
2023-03-10T17:24:18.666Z,40.60
2023-03-10T17:26:21.051Z,40.70
2023-03-10T17:28:22.822Z,40.70
2023-03-10T17:30:24.595Z,40.80
2023-03-10T17:32:26.374Z,41.00
2023-03-10T17:34:28.235Z,41.00
2023-03-10T17:36:30.139Z,41.00
2023-03-10T17:38:31.962Z,41.60
2023-03-10T17:40:33.739Z,41.10
2023-03-10T17:42:35.444Z,41.10
2023-03-10T17:44:37.368Z,41.10
2023-03-10T17:46:39.189Z,41.20
2023-03-10T17:48:41.478Z,41.40
2023-03-10T17:50:46.594Z,41.40
2023-03-10T17:52:48.494Z,41.50
2023-03-10T17:54:50.296Z,41.50
2023-03-10T17:56:52.097Z,41.60
2023-03-10T17:58:54.211Z,41.60
2023-03-10T18:00:56.019Z,41.50
2023-03-10T18:02:58.218Z,41.70
2023-03-10T18:05:00.086Z,41.80
2023-03-10T18:07:01.999Z,41.90
2023-03-10T18:09:07.386Z,41.90
2023-03-10T18:11:09.380Z,41.90
2023-03-10T18:13:11.515Z,41.90
2023-03-10T18:15:13.655Z,41.90
2023-03-10T18:17:15.467Z,41.80
2023-03-10T18:19:17.295Z,41.60
2023-03-10T18:21:19.688Z,41.70
2023-03-10T18:23:21.474Z,41.80
2023-03-10T18:25:23.247Z,41.80
2023-03-10T18:27:25.088Z,41.80
2023-03-10T18:29:26.779Z,41.80
2023-03-10T18:31:29.606Z,41.80
2023-03-10T18:33:31.398Z,41.80
2023-03-10T18:35:33.611Z,41.70
2023-03-10T18:37:35.350Z,41.70
2023-03-10T18:39:40.587Z,41.70
2023-03-10T18:41:42.695Z,41.70
2023-03-10T18:43:44.450Z,41.70
2023-03-10T18:45:46.756Z,41.80
2023-03-10T18:47:48.522Z,41.80
2023-03-10T18:49:50.334Z,41.70
2023-03-10T18:51:52.137Z,41.80
2023-03-10T18:53:54.208Z,41.90
2023-03-10T18:55:56.153Z,41.90
2023-03-10T18:57:57.967Z,41.90
2023-03-10T19:00:00.945Z,41.80
2023-03-10T19:02:03.066Z,41.80
2023-03-10T19:04:04.888Z,41.80
2023-03-10T19:06:06.860Z,41.90
2023-03-10T19:08:08.879Z,41.80
2023-03-10T19:10:17.544Z,41.80
2023-03-10T19:12:19.293Z,41.80
2023-03-10T19:14:21.157Z,41.80
2023-03-10T19:16:22.966Z,41.90
2023-03-10T19:18:25.013Z,41.90
2023-03-10T19:20:26.809Z,41.90
2023-03-10T19:22:28.583Z,42.00
2023-03-10T19:24:30.445Z,41.90
2023-03-10T19:26:33.336Z,41.90
2023-03-10T19:28:35.506Z,41.80
2023-03-10T19:30:39.280Z,41.80
2023-03-10T19:32:41.231Z,41.80
2023-03-10T19:34:43.030Z,41.90
2023-03-10T19:36:44.819Z,41.90
2023-03-10T19:38:46.622Z,41.80
2023-03-10T19:40:48.409Z,41.80
2023-03-10T19:42:50.208Z,41.90
2023-03-10T19:44:52.011Z,41.90
2023-03-10T19:46:54.185Z,41.90
2023-03-10T19:48:55.977Z,41.90
2023-03-10T19:50:58.835Z,42.00
2023-03-10T19:53:00.678Z,41.80
2023-03-10T19:55:02.419Z,41.90
2023-03-10T19:57:04.210Z,41.90
2023-03-10T19:59:06.020Z,41.90
2023-03-10T20:01:11.861Z,42.00
2023-03-10T20:03:13.770Z,42.00
2023-03-10T20:05:16.221Z,42.00
2023-03-10T20:07:17.976Z,42.00
2023-03-10T20:09:19.790Z,42.00
2023-03-10T20:11:21.526Z,42.10
2023-03-10T20:13:23.339Z,42.10
2023-03-10T20:15:26.557Z,42.00
2023-03-10T20:17:28.294Z,42.00
2023-03-10T20:19:30.159Z,41.90
2023-03-10T20:21:31.897Z,41.90
2023-03-10T20:23:34.082Z,41.90
2023-03-10T20:25:35.863Z,42.00
2023-03-10T20:27:37.715Z,42.00
2023-03-10T20:29:39.526Z,42.20
2023-03-10T20:31:41.478Z,42.20
2023-03-10T20:33:43.419Z,42.20
2023-03-10T20:35:45.220Z,42.10
2023-03-10T20:37:47.090Z,42.10
2023-03-10T20:39:48.850Z,42.00
2023-03-10T20:41:50.919Z,42.10
2023-03-10T20:43:52.624Z,42.10
2023-03-10T20:45:54.462Z,42.10
2023-03-10T20:47:56.721Z,42.00
2023-03-10T20:49:58.517Z,42.00
2023-03-10T20:52:00.315Z,41.90
2023-03-10T20:54:02.117Z,41.90
2023-03-10T20:56:07.462Z,42.10
2023-03-10T20:58:09.273Z,42.00
2023-03-10T21:00:11.541Z,42.00
2023-03-10T21:02:14.837Z,42.00
2023-03-10T21:04:16.663Z,42.00
2023-03-10T21:06:18.446Z,42.00
2023-03-10T21:08:20.201Z,42.00
2023-03-10T21:10:22.040Z,42.00
2023-03-10T21:12:23.798Z,42.00
2023-03-10T21:14:25.754Z,42.00
2023-03-10T21:16:27.950Z,42.00
2023-03-10T21:18:29.750Z,42.00
2023-03-10T21:20:31.753Z,42.00
2023-03-10T21:22:37.815Z,42.00
2023-03-10T21:24:39.579Z,42.00
2023-03-10T21:26:41.360Z,42.00
2023-03-10T21:28:43.194Z,42.10
2023-03-10T21:30:45.069Z,42.10
2023-03-10T21:32:47.024Z,42.10
2023-03-10T21:34:48.795Z,42.10
2023-03-10T21:36:50.697Z,42.00
2023-03-10T21:38:52.925Z,42.00
2023-03-10T21:40:54.807Z,42.00
2023-03-10T21:42:56.622Z,42.00
2023-03-10T21:44:58.328Z,41.90
2023-03-10T21:47:00.123Z,42.10
2023-03-10T21:49:01.926Z,42.00
2023-03-10T21:51:03.966Z,42.10
2023-03-10T21:53:05.731Z,42.00
2023-03-10T21:55:08.063Z,41.90
2023-03-10T21:57:09.826Z,42.00
2023-03-10T21:59:11.582Z,41.90
2023-03-10T22:01:14.197Z,42.00
2023-03-10T22:03:16.113Z,41.90
2023-03-10T22:05:18.681Z,41.90
2023-03-10T22:07:20.643Z,41.90
2023-03-10T22:09:22.359Z,41.90
2023-03-10T22:11:24.168Z,41.80
2023-03-10T22:13:25.968Z,41.80
2023-03-10T22:15:27.882Z,41.80
2023-03-10T22:17:29.679Z,41.90
2023-03-10T22:19:31.456Z,41.90
2023-03-10T22:21:33.156Z,41.90
2023-03-10T22:23:34.976Z,41.80
2023-03-10T22:25:37.186Z,41.80
2023-03-10T22:27:38.976Z,41.80
2023-03-10T22:29:40.783Z,41.80
2023-03-10T22:31:42.591Z,41.80
2023-03-10T22:33:44.340Z,41.80
2023-03-10T22:35:46.198Z,41.80
2023-03-10T22:37:48.324Z,41.70
2023-03-10T22:39:50.110Z,41.70
2023-03-10T22:41:51.875Z,41.60
2023-03-10T22:43:53.906Z,41.70
2023-03-10T22:45:55.697Z,41.60
2023-03-10T22:47:58.672Z,41.70
2023-03-10T22:50:00.470Z,41.60
2023-03-10T22:52:02.209Z,41.60
2023-03-10T22:54:04.031Z,41.60
2023-03-10T22:56:05.923Z,41.60
2023-03-10T22:58:07.969Z,41.70
2023-03-10T23:00:14.234Z,41.50
2023-03-10T23:02:15.986Z,41.60
2023-03-10T23:04:17.722Z,41.60
2023-03-10T23:06:19.506Z,41.70
2023-03-10T23:08:21.248Z,41.70
2023-03-10T23:10:27.544Z,41.60
2023-03-10T23:12:29.331Z,41.70
2023-03-10T23:14:31.067Z,41.60
2023-03-10T23:16:33.398Z,41.70
2023-03-10T23:18:35.304Z,41.70
2023-03-10T23:20:38.787Z,41.70
2023-03-10T23:22:44.309Z,41.70
2023-03-10T23:24:46.134Z,41.60
2023-03-10T23:26:47.883Z,41.50
2023-03-10T23:28:49.806Z,41.60
2023-03-10T23:30:51.658Z,41.70
2023-03-10T23:32:54.080Z,41.60
2023-03-10T23:34:55.923Z,41.70
2023-03-10T23:36:57.678Z,41.60
2023-03-10T23:38:59.394Z,41.60
2023-03-10T23:41:01.457Z,41.60
2023-03-10T23:43:04.509Z,41.50
2023-03-10T23:45:07.089Z,41.50
2023-03-10T23:47:08.911Z,41.60
2023-03-10T23:49:10.671Z,41.50
2023-03-10T23:51:13.260Z,41.50
2023-03-10T23:53:16.253Z,41.50
2023-03-10T23:55:20.974Z,41.40
2023-03-10T23:57:22.792Z,41.40
2023-03-10T23:59:24.559Z,41.40
